Time;durP1;ratioP1;P1;durP2;ratioP2;P2;SDS_P1;SDS_P2;PMS_P1;PMS_P2;Temp;Humidity;BMP_temperature;BMP_pressure;BME280_temperature;BME280_humidity;BME280_pressure;Samples;Min_cycle;Max_cycle;Signal;HPM_P1;HPM_P2
2023/02/08 00:00:42;;;;;;;26.63;15.63;;;-2.80;1.00;;;;;;7360568;19;20090;-69
2023/02/08 00:03:12;;;;;;;27.85;16.60;;;-2.80;1.00;;;;;;7382921;19;20025;-69
2023/02/08 00:05:45;;;;;;;26.90;17.05;;;-2.90;1.00;;;;;;7364800;19;20006;-69
2023/02/08 00:08:14;;;;;;;27.60;17.13;;;-2.90;1.00;;;;;;7361188;19;20021;-69
2023/02/08 00:10:45;;;;;;;28.98;16.75;;;-2.90;1.00;;;;;;7360457;19;20010;-69
2023/02/08 00:13:15;;;;;;;27.83;17.70;;;-2.90;1.00;;;;;;7362734;19;20489;-68
2023/02/08 00:15:45;;;;;;;30.23;17.52;;;-3.00;1.00;;;;;;7361821;19;20022;-68
2023/02/08 00:18:16;;;;;;;29.08;15.80;;;-3.00;1.00;;;;;;7382118;19;20078;-68
2023/02/08 00:20:48;;;;;;;25.77;16.95;;;-2.90;1.00;;;;;;7361866;19;20216;-68
2023/02/08 00:23:19;;;;;;;24.95;16.13;;;-2.90;1.00;;;;;;7360421;19;20015;-68
2023/02/08 00:25:49;;;;;;;25.67;15.90;;;-3.00;1.00;;;;;;7363231;19;20054;-68
2023/02/08 00:28:20;;;;;;;24.38;15.32;;;-2.90;1.00;;;;;;7361178;19;20474;-68
2023/02/08 00:30:50;;;;;;;23.17;14.70;;;-3.00;1.00;;;;;;7359881;19;20025;-68
2023/02/08 00:33:20;;;;;;;26.33;15.95;;;-3.00;1.00;;;;;;7377825;19;20011;-69
2023/02/08 00:35:53;;;;;;;24.77;15.93;;;-2.90;1.00;;;;;;7383378;19;20045;-68
2023/02/08 00:38:22;;;;;;;24.45;15.43;;;-2.90;1.00;;;;;;7360377;19;20134;-68
2023/02/08 00:40:52;;;;;;;24.65;15.38;;;-3.00;1.00;;;;;;7359307;19;20484;-68
2023/02/08 00:43:24;;;;;;;25.08;15.85;;;-2.90;1.00;;;;;;7360370;19;20460;-68
2023/02/08 00:45:56;;;;;;;26.05;16.20;;;-3.00;1.00;;;;;;7360747;19;20086;-68
2023/02/08 00:48:26;;;;;;;24.90;16.15;;;-3.00;1.00;;;;;;7360570;19;20021;-68
2023/02/08 00:51:03;;;;;;;28.75;16.60;;;-3.00;1.00;;;;;;7381832;19;20022;-69
2023/02/08 00:53:37;;;;;;;26.67;16.38;;;-3.00;1.00;;;;;;7359697;19;20033;-67
2023/02/08 00:56:08;;;;;;;25.70;16.42;;;-3.00;1.00;;;;;;7361324;19;20110;-67
2023/02/08 00:58:38;;;;;;;26.95;15.82;;;-3.00;1.00;;;;;;7359617;19;20011;-68
2023/02/08 01:01:09;;;;;;;26.88;16.30;;;-3.00;1.00;;;;;;7359667;19;20019;-68
2023/02/08 01:03:42;;;;;;;26.33;16.80;;;-3.00;1.00;;;;;;7360295;19;20482;-68
2023/02/08 01:06:17;;;;;;;30.05;16.33;;;-3.00;1.00;;;;;;7382881;19;20014;-67
2023/02/08 01:08:48;;;;;;;22.95;15.20;;;-3.10;1.00;;;;;;7359721;19;20478;-67
2023/02/08 01:11:21;;;;;;;26.50;15.32;;;-3.30;1.00;;;;;;7358808;19;20021;-67
2023/02/08 01:13:52;;;;;;;26.67;15.55;;;-3.30;1.00;;;;;;7362748;19;20015;-67
2023/02/08 01:16:24;;;;;;;24.40;15.38;;;-3.30;1.00;;;;;;7367242;19;20782;-67
2023/02/08 01:18:56;;;;;;;23.92;14.02;;;-3.40;1.00;;;;;;7366756;19;20498;-67
2023/02/08 01:21:31;;;;;;;24.70;15.32;;;-3.40;1.00;;;;;;7366238;19;20021;-68
2023/02/08 01:24:02;;;;;;;21.65;14.18;;;-3.40;1.00;;;;;;7388690;19;20019;-67
2023/02/08 01:26:32;;;;;;;23.70;14.55;;;-3.40;1.00;;;;;;7368562;19;20014;-68
2023/02/08 01:29:02;;;;;;;24.48;14.90;;;-3.40;1.00;;;;;;7367109;19;20011;-68
2023/02/08 01:31:35;;;;;;;24.95;14.73;;;-3.40;1.00;;;;;;7366671;19;20015;-68
2023/02/08 01:34:06;;;;;;;21.85;14.20;;;-3.40;1.00;;;;;;7367207;19;20026;-68
2023/02/08 01:36:40;;;;;;;21.35;14.15;;;-3.40;1.00;;;;;;7368178;19;20015;-68
2023/02/08 01:39:12;;;;;;;27.27;16.73;;;-3.40;1.00;;;;;;7388370;19;20018;-68
2023/02/08 01:41:45;;;;;;;20.92;13.05;;;-3.40;1.00;;;;;;7365111;19;20014;-67
2023/02/08 01:44:57;;;;;;;22.05;13.32;;;-3.30;1.00;;;;;;7365290;19;20508;-67
2023/02/08 01:47:27;;;;;;;21.42;13.60;;;-3.20;1.00;;;;;;7363820;19;20011;-67
2023/02/08 01:49:57;;;;;;;21.35;13.60;;;-3.20;1.00;;;;;;7364751;19;20010;-68
2023/02/08 01:52:30;;;;;;;22.08;13.95;;;-3.30;1.00;;;;;;7366252;19;20025;-67
2023/02/08 01:55:03;;;;;;;21.45;13.65;;;-3.30;1.00;;;;;;7369090;19;20021;-66
2023/02/08 01:57:36;;;;;;;21.52;13.35;;;-3.30;1.00;;;;;;7372205;19;20102;-67
2023/02/08 02:00:10;;;;;;;22.52;13.35;;;-3.40;1.00;;;;;;7392305;19;20116;-67
2023/02/08 02:02:40;;;;;;;20.65;12.48;;;-3.30;1.00;;;;;;7363184;19;20481;-67
2023/02/08 02:05:11;;;;;;;24.17;14.00;;;-3.40;1.00;;;;;;7368063;19;20631;-66
2023/02/08 02:07:44;;;;;;;20.02;13.15;;;-3.40;1.00;;;;;;7365185;19;20474;-67
2023/02/08 02:10:19;;;;;;;23.23;12.88;;;-3.30;1.00;;;;;;7369346;19;20003;-67
2023/02/08 02:12:53;;;;;;;21.02;12.85;;;-3.30;1.00;;;;;;7375891;19;20018;-67
2023/02/08 02:15:24;;;;;;;21.75;13.32;;;-3.30;1.00;;;;;;7371789;19;20014;-69
2023/02/08 02:17:55;;;;;;;21.67;12.77;;;-3.40;1.00;;;;;;7394819;19;20034;-68
2023/02/08 02:20:37;;;;;;;23.58;12.27;;;-3.40;1.00;;;;;;7362870;19;20006;-68
2023/02/08 02:23:32;;;;;;;19.25;11.95;;;-3.40;1.00;;;;;;7364354;19;20120;-68
2023/02/08 02:26:32;;;;;;;22.42;12.93;;;-3.30;1.00;;;;;;7365017;19;20040;-68
2023/02/08 02:29:24;;;;;;;21.05;12.60;;;-3.40;1.00;;;;;;7365190;19;20484;-67
2023/02/08 02:32:08;;;;;;;21.33;12.18;;;-3.40;1.00;;;;;;7364345;19;20010;-68
2023/02/08 02:34:44;;;;;;;20.17;11.93;;;-3.40;1.00;;;;;;7364886;19;20017;-68
2023/02/08 02:37:31;;;;;;;21.98;12.20;;;-3.40;1.00;;;;;;7365471;19;20014;-68
2023/02/08 02:40:16;;;;;;;20.10;12.70;;;-3.40;1.00;;;;;;7365969;19;20123;-67
2023/02/08 02:45:48;;;;;;;20.15;13.13;;;-3.40;1.00;;;;;;7362970;19;20153;-67
2023/02/08 02:48:26;;;;;;;22.67;12.80;;;-3.50;1.00;;;;;;7385784;19;20022;-67
2023/02/08 02:51:00;;;;;;;23.08;13.35;;;-3.50;1.00;;;;;;7363919;19;20017;-68
2023/02/08 02:53:36;;;;;;;21.73;13.35;;;-3.40;1.00;;;;;;7364923;19;20023;-68
2023/02/08 02:56:11;;;;;;;23.48;12.82;;;-3.50;1.00;;;;;;7364568;19;20015;-67
2023/02/08 02:58:42;;;;;;;19.08;12.55;;;-3.40;1.00;;;;;;7362867;19;20086;-68
2023/02/08 03:01:13;;;;;;;18.95;12.48;;;-3.50;1.00;;;;;;7363743;19;20018;-67
2023/02/08 03:03:47;;;;;;;20.90;13.02;;;-3.50;1.00;;;;;;7362663;19;20010;-68
2023/02/08 03:06:27;;;;;;;24.17;14.43;;;-3.50;1.00;;;;;;7384898;19;20010;-68
2023/02/08 03:09:23;;;;;;;19.20;12.75;;;-3.50;1.00;;;;;;7364987;19;20015;-69
2023/02/08 03:11:59;;;;;;;18.90;12.35;;;-3.50;1.00;;;;;;7362933;19;20010;-67
2023/02/08 03:14:37;;;;;;;21.20;12.55;;;-3.40;1.00;;;;;;7367116;19;20078;-68
2023/02/08 03:17:25;;;;;;;21.80;12.90;;;-3.40;1.00;;;;;;7365698;19;20369;-67
2023/02/08 03:20:05;;;;;;;21.80;13.70;;;-3.40;1.00;;;;;;7362540;19;20462;-67
2023/02/08 03:22:44;;;;;;;21.48;12.73;;;-3.60;1.00;;;;;;7362649;19;20093;-67
2023/02/08 03:25:21;;;;;;;22.83;13.18;;;-3.70;1.00;;;;;;7363780;19;20026;-68
2023/02/08 03:28:00;;;;;;;25.08;13.73;;;-3.70;1.00;;;;;;7363042;19;20018;-68
2023/02/08 03:30:37;;;;;;;24.55;14.02;;;-3.80;1.00;;;;;;7360482;19;20015;-68
2023/02/08 03:33:15;;;;;;;25.77;13.02;;;-3.80;1.00;;;;;;7383667;19;20153;-68
2023/02/08 03:35:56;;;;;;;23.40;12.88;;;-3.80;1.00;;;;;;7360827;19;20015;-66
2023/02/08 03:38:32;;;;;;;21.23;12.05;;;-3.80;1.00;;;;;;7362804;19;20014;-67
2023/02/08 03:41:06;;;;;;;20.10;11.85;;;-3.80;1.00;;;;;;7362269;19;20014;-67
2023/02/08 03:43:40;;;;;;;24.58;13.27;;;-3.80;1.00;;;;;;7361693;19;20027;-67
2023/02/08 03:46:15;;;;;;;20.77;12.73;;;-3.80;1.00;;;;;;7363136;19;20010;-67
2023/02/08 03:48:51;;;;;;;20.35;12.48;;;-3.90;1.00;;;;;;7362005;19;20099;-67
2023/02/08 03:51:25;;;;;;;23.85;14.40;;;-3.80;1.00;;;;;;7374685;19;20018;-68
2023/02/08 03:53:58;;;;;;;19.58;12.23;;;-3.80;1.00;;;;;;7384537;19;20014;-66
2023/02/08 03:56:36;;;;;;;23.17;13.18;;;-3.80;1.00;;;;;;7363132;19;20018;-66
2023/02/08 03:59:10;;;;;;;25.33;13.85;;;-3.70;1.00;;;;;;7362085;19;20048;-66
2023/02/08 04:01:46;;;;;;;20.30;12.05;;;-3.70;1.00;;;;;;7361589;19;20052;-66
2023/02/08 04:04:18;;;;;;;19.75;12.55;;;-3.70;1.00;;;;;;7364265;19;20017;-66
2023/02/08 04:06:50;;;;;;;21.38;13.23;;;-3.70;1.00;;;;;;7363017;19;20085;-67
2023/02/08 04:09:20;;;;;;;23.65;12.65;;;-3.80;1.00;;;;;;7380535;19;20019;-67
2023/02/08 04:11:50;;;;;;;21.13;13.10;;;-3.80;1.00;;;;;;7382624;19;20031;-67
2023/02/08 04:14:20;;;;;;;24.85;13.23;;;-3.90;1.00;;;;;;7364364;19;20014;-68
2023/02/08 04:16:50;;;;;;;24.40;13.57;;;-3.90;1.00;;;;;;7362894;19;20105;-69
2023/02/08 04:19:20;;;;;;;24.95;14.32;;;-3.90;1.00;;;;;;7360675;19;20011;-68
2023/02/08 04:21:52;;;;;;;19.08;12.07;;;-3.90;1.00;;;;;;7361310;19;20343;-69
2023/02/08 04:24:22;;;;;;;22.13;12.70;;;-3.90;1.00;;;;;;7359209;19;20010;-69
2023/02/08 04:26:52;;;;;;;24.38;13.93;;;-3.90;1.00;;;;;;7384017;19;20090;-69
2023/02/08 04:29:22;;;;;;;25.17;14.35;;;-3.80;1.00;;;;;;7362704;19;20478;-69
2023/02/08 04:31:52;;;;;;;22.45;13.80;;;-3.80;1.00;;;;;;7361018;19;20014;-70
2023/02/08 04:34:22;;;;;;;22.63;13.57;;;-3.80;1.00;;;;;;7360359;19;20021;-69
2023/02/08 04:36:54;;;;;;;26.63;13.95;;;-3.80;1.00;;;;;;7362180;19;20014;-69
2023/02/08 04:39:24;;;;;;;21.98;13.45;;;-3.70;1.00;;;;;;7362634;19;20026;-69
2023/02/08 04:41:54;;;;;;;23.40;13.50;;;-3.70;1.00;;;;;;7381626;19;20042;-69
2023/02/08 04:44:24;;;;;;;20.80;13.18;;;-3.80;1.00;;;;;;7358618;19;20374;-69
2023/02/08 04:46:54;;;;;;;22.40;13.50;;;-3.80;1.00;;;;;;7361877;19;20010;-69
2023/02/08 04:49:23;;;;;;;20.40;12.98;;;-3.90;1.00;;;;;;7359754;19;20018;-69
2023/02/08 04:51:56;;;;;;;21.10;12.38;;;-3.80;1.00;;;;;;7360761;19;20018;-69
2023/02/08 04:54:26;;;;;;;23.30;13.27;;;-3.80;1.00;;;;;;7360852;19;20018;-69
2023/02/08 04:56:55;;;;;;;24.05;13.13;;;-3.70;1.00;;;;;;7382796;19;20015;-69
2023/02/08 04:59:25;;;;;;;22.52;12.27;;;-3.70;1.00;;;;;;7359643;19;20014;-69
2023/02/08 05:01:55;;;;;;;22.20;12.70;;;-3.70;1.00;;;;;;7360814;19;20014;-69
2023/02/08 05:04:25;;;;;;;22.27;12.43;;;-3.80;1.00;;;;;;7361542;19;20021;-68
2023/02/08 05:06:57;;;;;;;21.88;12.63;;;-3.80;1.00;;;;;;7360415;19;20094;-69
2023/02/08 05:09:27;;;;;;;23.80;12.85;;;-3.90;1.00;;;;;;7361535;19;20378;-69
2023/02/08 05:11:56;;;;;;;21.73;12.75;;;-3.70;1.00;;;;;;7380166;19;20019;-69
2023/02/08 05:14:26;;;;;;;20.50;12.50;;;-3.70;1.00;;;;;;7363452;19;20021;-69
2023/02/08 05:16:56;;;;;;;19.23;12.23;;;-3.60;1.00;;;;;;7361414;19;20537;-70
2023/02/08 05:19:26;;;;;;;21.63;12.20;;;-3.60;1.00;;;;;;7359267;19;20490;-69
2023/02/08 05:21:58;;;;;;;26.98;12.75;;;-3.60;1.00;;;;;;7359679;19;20466;-70
2023/02/08 05:24:28;;;;;;;22.88;12.93;;;-3.80;1.00;;;;;;7358241;19;20525;-69
2023/02/08 05:26:58;;;;;;;22.35;13.10;;;-3.90;1.00;;;;;;7382024;19;20014;-69
2023/02/08 05:29:28;;;;;;;24.33;13.73;;;-3.90;1.00;;;;;;7361016;19;20025;-69
2023/02/08 05:31:57;;;;;;;25.10;14.20;;;-4.00;1.00;;;;;;7359939;19;20079;-68
2023/02/08 05:34:27;;;;;;;22.20;13.35;;;-4.10;1.00;;;;;;7359167;19;20015;-69
2023/02/08 05:36:59;;;;;;;23.30;13.25;;;-4.20;1.00;;;;;;7359420;19;20014;-68
2023/02/08 05:39:29;;;;;;;23.80;13.65;;;-4.20;1.00;;;;;;7360242;19;20343;-68
2023/02/08 05:41:59;;;;;;;25.67;14.63;;;-4.20;1.00;;;;;;7379770;19;20035;-68
2023/02/08 05:44:29;;;;;;;23.77;13.88;;;-4.10;1.00;;;;;;7357743;19;20019;-68
2023/02/08 05:46:59;;;;;;;22.33;13.65;;;-4.10;1.00;;;;;;7359549;19;20010;-69
2023/02/08 05:49:29;;;;;;;24.63;13.75;;;-4.10;1.00;;;;;;7358156;19;20014;-69
2023/02/08 05:52:01;;;;;;;21.02;12.93;;;-4.00;1.00;;;;;;7359623;19;20835;-69
2023/02/08 05:54:31;;;;;;;22.10;13.65;;;-3.90;1.00;;;;;;7358836;19;20090;-68
2023/02/08 05:57:00;;;;;;;23.83;13.38;;;-3.90;1.00;;;;;;7382271;19;20038;-69
2023/02/08 05:59:30;;;;;;;23.92;13.95;;;-4.00;1.00;;;;;;7360539;19;20018;-69
2023/02/08 06:02:00;;;;;;;21.70;13.00;;;-3.90;1.00;;;;;;7365909;19;20556;-69
2023/02/08 06:04:30;;;;;;;24.08;13.45;;;-3.90;1.00;;;;;;7365895;19;20424;-68
2023/02/08 06:07:02;;;;;;;22.10;12.73;;;-3.80;1.00;;;;;;7365940;19;20057;-69
2023/02/08 06:09:32;;;;;;;21.00;12.35;;;-3.80;1.00;;;;;;7366652;19;20014;-69
2023/02/08 06:12:02;;;;;;;20.55;12.93;;;-3.80;1.00;;;;;;7386604;19;20014;-69
2023/02/08 06:14:32;;;;;;;21.80;13.52;;;-3.90;1.00;;;;;;7368377;19;20072;-69
2023/02/08 06:17:02;;;;;;;21.13;13.02;;;-3.90;1.00;;;;;;7366452;19;20077;-69
2023/02/08 06:19:34;;;;;;;24.13;14.32;;;-3.90;1.00;;;;;;7363071;19;20025;-69
2023/02/08 06:22:07;;;;;;;21.40;13.07;;;-4.00;1.00;;;;;;7365537;19;20015;-70
2023/02/08 06:24:37;;;;;;;23.13;14.00;;;-4.00;1.00;;;;;;7363209;19;20014;-69
2023/02/08 06:27:06;;;;;;;26.27;13.70;;;-4.00;1.00;;;;;;7387431;19;20015;-68
2023/02/08 06:29:36;;;;;;;25.58;14.32;;;-4.00;1.00;;;;;;7365183;19;20054;-70
2023/02/08 06:32:06;;;;;;;24.10;13.80;;;-3.90;1.00;;;;;;7363373;19;20448;-69
2023/02/08 06:34:36;;;;;;;25.58;14.30;;;-4.00;1.00;;;;;;7364459;19;20010;-70
2023/02/08 06:37:09;;;;;;;23.00;13.55;;;-4.00;1.00;;;;;;7364144;19;20072;-69
2023/02/08 06:39:38;;;;;;;23.38;13.95;;;-4.00;1.00;;;;;;7364898;19;20493;-69
2023/02/08 06:42:08;;;;;;;27.90;14.40;;;-4.00;1.00;;;;;;7385089;19;20018;-69
2023/02/08 06:44:38;;;;;;;24.15;13.98;;;-4.00;1.00;;;;;;7362246;19;20777;-69
2023/02/08 06:47:23;;;;;;;26.27;14.20;;;-4.00;1.00;;;;;;7363754;19;20018;-69
2023/02/08 06:49:52;;;;;;;24.05;14.50;;;-4.00;1.00;;;;;;7362068;19;20020;-69
2023/02/08 06:52:25;;;;;;;30.75;17.60;;;-3.90;1.00;;;;;;7365649;19;20014;-69
2023/02/08 06:54:55;;;;;;;23.77;14.43;;;-3.80;1.00;;;;;;7366010;19;20406;-68
2023/02/08 06:57:24;;;;;;;27.42;14.73;;;-3.90;1.00;;;;;;7364598;19;20015;-69
2023/02/08 06:59:54;;;;;;;26.42;14.07;;;-3.90;1.00;;;;;;7384073;19;20124;-69
2023/02/08 07:02:24;;;;;;;27.45;14.75;;;-3.80;1.00;;;;;;7362337;19;20010;-68
2023/02/08 07:04:54;;;;;;;27.55;14.23;;;-3.80;1.00;;;;;;7365160;19;20617;-69
2023/02/08 07:07:26;;;;;;;24.73;13.60;;;-3.70;1.00;;;;;;7363431;19;20019;-69
2023/02/08 07:09:56;;;;;;;26.05;14.23;;;-3.70;1.00;;;;;;7358214;19;20125;-70
2023/02/08 07:12:26;;;;;;;27.27;14.35;;;-3.60;1.00;;;;;;7359213;19;20014;-70
2023/02/08 07:14:56;;;;;;;24.38;13.63;;;-3.60;1.00;;;;;;7388624;19;20011;-70
2023/02/08 07:17:25;;;;;;;26.92;13.95;;;-3.50;1.00;;;;;;7362392;19;20014;-69
2023/02/08 07:19:55;;;;;;;22.85;14.23;;;-3.50;1.00;;;;;;7361493;19;20130;-70
2023/02/08 07:22:28;;;;;;;22.88;13.02;;;-3.40;1.00;;;;;;7362128;19;20413;-69
2023/02/08 07:24:58;;;;;;;26.13;13.90;;;-3.30;1.00;;;;;;7361634;19;20091;-69
2023/02/08 07:27:27;;;;;;;31.15;14.80;;;-3.30;1.00;;;;;;7363841;19;20024;-68
2023/02/08 07:29:57;;;;;;;25.70;14.30;;;-3.20;1.00;;;;;;7386530;19;20128;-68
2023/02/08 07:32:27;;;;;;;26.83;14.77;;;-3.20;1.00;;;;;;7361144;19;20388;-68
2023/02/08 07:34:57;;;;;;;22.77;13.13;;;-3.20;1.00;;;;;;7362659;19;20035;-70
2023/02/08 07:37:30;;;;;;;22.42;13.02;;;-3.10;1.00;;;;;;7361194;19;20018;-70
2023/02/08 07:40:00;;;;;;;26.13;14.75;;;-3.10;1.00;;;;;;7363408;19;20020;-69
2023/02/08 07:42:30;;;;;;;24.60;14.07;;;-3.00;1.00;;;;;;7362160;19;20074;-69
2023/02/08 07:44:59;;;;;;;25.08;13.75;;;-3.00;1.00;;;;;;7382987;19;20014;-71
2023/02/08 07:47:29;;;;;;;22.88;13.90;;;-2.90;1.00;;;;;;7361128;19;20006;-70
2023/02/08 07:49:59;;;;;;;24.02;13.90;;;-2.80;1.00;;;;;;7362528;19;20014;-70
2023/02/08 07:52:31;;;;;;;20.58;12.45;;;-2.80;1.00;;;;;;7361264;19;20356;-68
2023/02/08 07:55:01;;;;;;;27.02;14.25;;;-2.80;1.00;;;;;;7362368;19;20007;-69
2023/02/08 07:57:31;;;;;;;27.73;14.15;;;-2.70;1.00;;;;;;7362283;19;20018;-70
2023/02/08 08:00:01;;;;;;;28.95;13.32;;;-2.70;1.00;;;;;;7385260;19;20020;-69
2023/02/08 08:02:31;;;;;;;25.40;13.48;;;-2.70;1.00;;;;;;7360733;19;20019;-69
2023/02/08 08:05:00;;;;;;;24.08;14.18;;;-2.60;1.00;;;;;;7363648;19;20057;-69
2023/02/08 08:07:33;;;;;;;23.52;14.25;;;-2.60;1.00;;;;;;7362410;19;20057;-70
2023/02/08 08:10:02;;;;;;;25.73;13.30;;;-2.50;1.00;;;;;;7363177;19;20048;-70
2023/02/08 08:12:32;;;;;;;25.38;12.70;;;-2.40;1.00;;;;;;7360706;19;20599;-69
2023/02/08 08:15:02;;;;;;;24.15;12.63;;;-2.40;1.00;;;;;;7383072;19;20392;-70
2023/02/08 08:17:32;;;;;;;23.23;12.48;;;-2.30;1.00;;;;;;7362081;19;20014;-69
2023/02/08 08:20:02;;;;;;;24.15;12.68;;;-2.30;1.00;;;;;;7359771;19;20348;-68
2023/02/08 08:22:34;;;;;;;29.02;15.70;;;-2.20;1.00;;;;;;7360288;19;20018;-70
2023/02/08 08:25:04;;;;;;;27.23;13.60;;;-2.20;1.00;;;;;;7360437;19;20031;-69
2023/02/08 08:27:34;;;;;;;24.25;13.02;;;-2.10;1.00;;;;;;7361862;19;20050;-70
2023/02/08 08:30:04;;;;;;;30.65;13.05;;;-2.10;1.00;;;;;;7384038;19;20022;-70
2023/02/08 08:32:34;;;;;;;21.95;12.55;;;-1.90;1.00;;;;;;7360365;19;20052;-70
2023/02/08 08:35:04;;;;;;;25.02;12.80;;;-2.00;1.00;;;;;;7360220;19;20493;-71
2023/02/08 08:37:37;;;;;;;29.48;13.80;;;-1.90;1.00;;;;;;7361632;19;20022;-69
2023/02/08 08:40:09;;;;;;;20.83;11.95;;;-1.80;1.00;;;;;;7362217;19;20010;-70
2023/02/08 08:42:40;;;;;;;21.23;12.05;;;-1.70;1.00;;;;;;7360204;19;20022;-70
2023/02/08 08:45:11;;;;;;;25.55;12.27;;;-1.90;1.00;;;;;;7385353;19;20550;-70
2023/02/08 08:47:41;;;;;;;22.67;12.68;;;-1.80;1.00;;;;;;7361111;19;20090;-70
2023/02/08 08:50:11;;;;;;;24.65;13.15;;;-1.70;1.00;;;;;;7358995;19;20018;-71
2023/02/08 08:52:44;;;;;;;25.55;12.93;;;-1.80;1.00;;;;;;7359824;19;20024;-70
2023/02/08 08:55:14;;;;;;;27.08;12.90;;;-1.60;1.00;;;;;;7360230;19;20044;-70
2023/02/08 08:57:43;;;;;;;25.17;12.57;;;-1.60;1.00;;;;;;7360345;19;20055;-70
2023/02/08 09:00:14;;;;;;;26.15;13.05;;;-1.50;1.00;;;;;;7379337;19;20119;-69
2023/02/08 09:02:44;;;;;;;23.00;12.93;;;-1.40;1.00;;;;;;7359030;19;20014;-70
2023/02/08 09:05:14;;;;;;;21.60;11.80;;;-1.30;1.00;;;;;;7362446;19;20061;-69
2023/02/08 09:07:46;;;;;;;25.33;12.65;;;-1.20;1.00;;;;;;7360421;19;20010;-68
2023/02/08 09:10:16;;;;;;;24.88;12.20;;;-1.20;1.00;;;;;;7358050;19;20024;-70
2023/02/08 09:12:46;;;;;;;24.83;11.98;;;-1.20;1.00;;;;;;7359612;19;20054;-69
2023/02/08 09:15:16;;;;;;;21.73;12.43;;;-1.20;1.00;;;;;;7380121;19;20028;-70
2023/02/08 09:17:46;;;;;;;20.02;11.25;;;-1.00;1.00;;;;;;7359936;19;20018;-69
2023/02/08 09:20:15;;;;;;;24.77;12.18;;;-1.00;1.00;;;;;;7356811;19;20042;-70
2023/02/08 09:22:48;;;;;;;25.45;11.73;;;-0.90;1.00;;;;;;7359552;19;20014;-70
2023/02/08 09:25:18;;;;;;;25.85;12.20;;;-0.90;1.00;;;;;;7359007;19;20019;-69
2023/02/08 09:27:48;;;;;;;26.60;12.10;;;-0.80;1.00;;;;;;7356778;19;20022;-69
2023/02/08 09:30:17;;;;;;;25.05;12.93;;;-0.70;1.00;;;;;;7378265;19;20849;-71
2023/02/08 09:32:47;;;;;;;23.27;12.43;;;-0.60;1.00;;;;;;7358884;19;20019;-70
2023/02/08 09:35:17;;;;;;;34.72;14.27;;;-0.50;1.00;;;;;;7362546;19;20034;-71
2023/02/08 09:37:53;;;;;;;23.27;12.30;;;-0.40;1.00;;;;;;7365916;19;20037;-70
2023/02/08 09:40:25;;;;;;;23.52;12.15;;;-0.30;1.00;;;;;;7365380;19;20014;-70
2023/02/08 09:43:08;;;;;;;24.42;11.43;;;-0.30;1.00;;;;;;7367834;19;20018;-71
2023/02/08 09:45:46;;;;;;;27.23;11.93;;;-0.30;1.00;;;;;;7365574;19;20034;-68
2023/02/08 09:48:33;;;;;;;21.23;11.80;;;-0.20;1.00;;;;;;7366690;19;20101;-70
2023/02/08 09:51:06;;;;;;;;;;;0.00;1.00;;;;;;7387576;19;20006;-70
2023/02/08 09:53:43;;;;;;;31.38;12.00;;;0.10;1.00;;;;;;7365657;19;19918;-69
2023/02/08 09:56:17;;;;;;;20.35;11.30;;;0.20;1.00;;;;;;7364748;19;20031;-69
2023/02/08 09:58:51;;;;;;;19.45;10.52;;;0.20;1.00;;;;;;7365649;19;20033;-71
2023/02/08 10:01:24;;;;;;;20.05;10.50;;;0.30;1.00;;;;;;7364866;19;20015;-70
2023/02/08 10:03:58;;;;;;;21.30;10.90;;;0.40;1.00;;;;;;7365416;19;20014;-70
2023/02/08 10:06:28;;;;;;;;;;;0.50;1.00;;;;;;7364853;19;20014;-70
2023/02/08 10:09:05;;;;;;;20.05;10.23;;;0.60;1.00;;;;;;7388162;19;19923;-70
2023/02/08 10:11:55;;;;;;;24.58;10.60;;;0.70;1.00;;;;;;7366117;19;20010;-70
2023/02/08 10:14:41;;;;;;;21.27;10.73;;;0.70;1.00;;;;;;7363500;19;20256;-70
2023/02/08 10:17:38;;;;;;;21.25;11.20;;;0.60;1.00;;;;;;7364630;19;20014;-71
2023/02/08 10:20:20;;;;;;;22.15;11.48;;;0.70;1.00;;;;;;7365297;19;20011;-70
2023/02/08 10:23:01;;;;;;;25.35;11.40;;;0.80;1.00;;;;;;7365346;19;20014;-69
2023/02/08 10:26:02;;;;;;;30.98;12.00;;;0.90;1.00;;;;;;7364875;19;20023;-70
2023/02/08 10:28:55;;;;;;;26.58;12.25;;;0.80;1.00;;;;;;7365066;19;20016;-70
2023/02/08 10:31:39;;;;;;;26.15;11.60;;;0.80;1.00;;;;;;7364092;19;20030;-70
2023/02/08 10:34:21;;;;;;;20.42;11.07;;;0.90;1.00;;;;;;7364470;19;20015;-70
2023/02/08 10:36:51;;;;;;;22.40;10.50;;;1.20;1.00;;;;;;7364413;19;20014;-69
2023/02/08 10:39:27;;;;;;;;;;;1.30;1.00;;;;;;7387529;19;20014;-72
2023/02/08 10:42:01;;;;;;;19.33;10.05;;;1.40;1.00;;;;;;7363520;19;19967;-71
2023/02/08 10:44:38;;;;;;;36.80;12.05;;;1.30;1.00;;;;;;7363823;19;20014;-71
2023/02/08 10:47:14;;;;;;;20.70;10.75;;;1.50;1.00;;;;;;7362470;19;20010;-71
2023/02/08 10:49:52;;;;;;;28.10;10.65;;;1.50;1.00;;;;;;7363568;19;20031;-72
2023/02/08 10:52:22;;;;;;;24.48;10.55;;;1.60;1.00;;;;;;7364030;19;20380;-70
2023/02/08 10:55:00;;;;;;;22.52;11.43;;;1.40;1.00;;;;;;7363318;19;20482;-72
2023/02/08 10:57:40;;;;;;;19.02;9.93;;;1.70;1.00;;;;;;7362919;19;20029;-71
2023/02/08 11:00:16;;;;;;;19.63;10.90;;;1.70;1.00;;;;;;7386837;19;20094;-71
2023/02/08 11:02:48;;;;;;;20.20;11.25;;;1.70;1.00;;;;;;7363636;19;20011;-72
2023/02/08 11:05:22;;;;;;;17.73;9.88;;;1.80;1.00;;;;;;7363194;19;20007;-71
2023/02/08 11:08:07;;;;;;;19.75;10.23;;;1.90;1.00;;;;;;7362852;19;20003;-71
2023/02/08 11:10:39;;;;;;;20.25;9.73;;;2.00;1.00;;;;;;7361500;19;20014;-73
2023/02/08 11:13:19;;;;;;;17.35;9.65;;;2.10;1.00;;;;;;7363823;19;20627;-72
2023/02/08 11:15:54;;;;;;;16.60;9.70;;;2.20;1.00;;;;;;7390321;19;20007;-73
2023/02/08 11:18:26;;;;;;;20.70;9.68;;;2.40;1.00;;;;;;7390408;19;20053;-72
2023/02/08 11:21:00;;;;;;;13.23;8.32;;;2.50;1.00;;;;;;7390806;19;20258;-72
2023/02/08 11:23:32;;;;;;;16.83;8.70;;;2.50;1.00;;;;;;7388894;19;20521;-74
2023/02/08 11:26:18;;;;;;;15.38;8.00;;;2.70;1.00;;;;;;7389834;19;20011;-72
2023/02/08 11:29:01;;;;;;;16.48;7.88;;;2.70;1.00;;;;;;7386631;19;20025;-72
2023/02/08 11:31:34;;;;;;;;;;;2.60;1.00;;;;;;7393675;19;20102;-73
2023/02/08 11:34:08;;;;;;;18.42;7.63;;;2.60;1.00;;;;;;7393660;19;20359;-72
2023/02/08 11:36:39;;;;;;;15.90;8.55;;;2.70;1.00;;;;;;7390728;19;20018;-72
2023/02/08 11:39:19;;;;;;;17.35;7.90;;;2.80;1.00;;;;;;7391540;19;20042;-73
2023/02/08 11:41:52;;;;;;;16.65;8.48;;;2.90;1.00;;;;;;7390352;19;20042;-74
2023/02/08 11:44:29;;;;;;;12.32;6.82;;;3.00;1.00;;;;;;7392635;19;20022;-73
2023/02/08 11:47:01;;;;;;;16.30;7.90;;;3.00;1.00;;;;;;7388220;19;20355;-75
2023/02/08 11:49:38;;;;;;;12.25;6.97;;;3.00;1.00;;;;;;7391442;19;20035;-73
2023/02/08 11:52:20;;;;;;;12.70;7.30;;;3.00;1.00;;;;;;7392399;19;20470;-72
2023/02/08 11:54:50;;;;;;;12.32;7.28;;;3.20;1.00;;;;;;7393856;19;20023;-72
2023/02/08 11:57:22;;;;;;;12.10;7.13;;;3.40;1.00;;;;;;7388173;19;20717;-72
2023/02/08 12:00:20;;;;;;;13.98;6.18;;;3.30;1.00;;;;;;7392305;19;20027;-73
2023/02/08 12:02:52;;;;;;;14.02;6.55;;;3.30;1.00;;;;;;7390042;19;20019;-74
2023/02/08 12:05:33;;;;;;;12.70;7.18;;;3.40;1.00;;;;;;7388101;19;20017;-72
2023/02/08 12:08:13;;;;;;;9.85;5.45;;;3.40;1.00;;;;;;7388245;19;20010;-74
2023/02/08 12:10:58;;;;;;;11.95;6.40;;;3.40;1.00;;;;;;7385368;19;20016;-73
2023/02/08 12:13:43;;;;;;;13.20;5.85;;;3.60;1.00;;;;;;7390274;19;20027;-74
2023/02/08 12:16:33;;;;;;;11.80;6.00;;;3.80;1.00;;;;;;7387901;19;20018;-73
2023/02/08 12:19:32;;;;;;;12.07;5.93;;;3.90;1.00;;;;;;7389086;19;20482;-74
2023/02/08 12:22:08;;;;;;;10.60;5.45;;;3.90;1.00;;;;;;7386593;19;20081;-74
2023/02/08 12:24:48;;;;;;;14.23;6.38;;;3.90;1.00;;;;;;7391053;19;20042;-74
2023/02/08 12:27:32;;;;;;;11.75;5.93;;;3.90;1.00;;;;;;7386899;19;20021;-72
2023/02/08 12:30:09;;;;;;;12.02;5.70;;;3.90;1.00;;;;;;7384721;19;20024;-74
2023/02/08 12:33:12;;;;;;;13.23;7.00;;;3.80;1.00;;;;;;7389237;19;20014;-73
2023/02/08 12:35:59;;;;;;;9.02;5.25;;;3.80;1.00;;;;;;7385749;19;20327;-73
2023/02/08 12:42:09;;;;;;;15.18;7.22;;;3.70;1.00;;;;;;7384530;19;20471;-73
2023/02/08 12:44:52;;;;;;;10.65;6.47;;;4.00;1.00;;;;;;7385132;19;20499;-73
2023/02/08 12:47:41;;;;;;;14.13;6.75;;;4.00;1.00;;;;;;7346867;19;20391;-72
2023/02/08 12:50:35;;;;;;;12.95;6.70;;;3.90;1.00;;;;;;7380610;19;20014;-73
2023/02/08 12:53:13;;;;;;;11.48;5.95;;;4.00;1.00;;;;;;7358712;19;20055;-74
2023/02/08 12:55:45;;;;;;;12.93;5.57;;;4.00;1.00;;;;;;7358786;19;20018;-73
2023/02/08 12:58:27;;;;;;;12.82;6.00;;;3.90;1.00;;;;;;7359169;19;20356;-71
2023/02/08 13:01:02;;;;;;;9.50;5.88;;;4.00;1.00;;;;;;7359427;19;20090;-73
2023/02/08 13:03:42;;;;;;;13.63;5.88;;;4.00;1.00;;;;;;7360313;19;20143;-72
2023/02/08 13:06:20;;;;;;;11.07;6.03;;;4.00;1.00;;;;;;7357183;19;21457;-74
2023/02/08 13:08:54;;;;;;;10.00;5.43;;;4.10;1.00;;;;;;7379633;19;20092;-75
2023/02/08 13:11:29;;;;;;;;;;;4.10;1.00;;;;;;7366730;19;20021;-74
2023/02/08 13:14:03;;;;;;;11.65;5.90;;;4.10;1.00;;;;;;7369464;19;19921;-74
2023/02/08 13:16:37;;;;;;;10.65;6.00;;;4.10;1.00;;;;;;7366548;19;20015;-73
2023/02/08 13:19:23;;;;;;;18.45;6.30;;;4.00;1.00;;;;;;7363988;19;20010;-74
2023/02/08 13:21:56;;;;;;;9.32;5.25;;;4.10;1.00;;;;;;7364553;19;20496;-74
2023/02/08 13:24:36;;;;;;;8.57;4.80;;;4.10;1.00;;;;;;7365359;19;20474;-73